Time;durP1;ratioP1;P1;durP2;ratioP2;P2;SDS_P1;SDS_P2;PMS_P1;PMS_P2;Temp;Humidity;BMP_temperature;BMP_pressure;BME280_temperature;BME280_humidity;BME280_pressure;Samples;Min_cycle;Max_cycle;Signal;HPM_P1;HPM_P2
2022/05/13 00:02:04;;;;;;;;;;;;;;;;;;5069817;28;1192;-78
2022/05/13 00:04:30;;;;;;;;;;;;;;;;;;5075858;28;1232;-78
2022/05/13 00:06:55;;;;;;;;;;;;;;;;;;5049240;28;1192;-76
2022/05/13 00:09:22;;;;;;;;;;;;;;;;;;5069468;28;1172;-78
2022/05/13 00:11:47;;;;;;;;;;;;;;;;;;5035424;28;1906;-78
2022/05/13 00:14:12;;;;;;;;;;;;;;;;;;5049357;28;1272;-77
2022/05/13 00:16:38;;;;;;;;;;;;;;;;;;5086610;28;1223;-78
2022/05/13 00:19:04;;;;;;;;;;;;;;;;;;5051623;28;1265;-77
2022/05/13 00:21:30;;;;;;;;;;;;;;;;;;5054229;28;1426;-77
2022/05/13 00:23:55;;;;;;;;;;;;;;;;;;5047959;28;1193;-78
2022/05/13 00:26:20;;;;;;;;;;;;;;;;;;5036886;28;1298;-78
2022/05/13 00:28:48;;;;;;;;;;;;;;;;;;5054389;28;1494;-78
2022/05/13 00:31:17;;;;;;;;;;;;;;;;;;5070615;28;1917;-78
2022/05/13 00:33:42;;;;;;;;;;;;;;;;;;5060079;28;1093;-77
2022/05/13 00:36:07;;;;;;;;;;;;;;;;;;5063431;28;1121;-77
2022/05/13 00:38:32;;;;;;;;;;;;;;;;;;5063058;28;1150;-77
2022/05/13 00:40:57;;;;;;;;;;;;;;;;;;5056241;28;1240;-77
2022/05/13 00:43:41;;;;;;;;;;;;;;;;;;5070754;28;1279;-78
2022/05/13 00:46:07;;;;;;;;;;;;;;;;;;5056586;28;1416;-78
2022/05/13 00:48:32;;;;;;;;;;;;;;;;;;5064576;28;1148;-78
2022/05/13 00:50:57;;;;;;;;;;;;;;;;;;5052010;28;1991;-78
2022/05/13 00:53:24;;;;;;;;;;;;;;;;;;5080705;28;1156;-78
2022/05/13 00:55:53;;;;;;;;;;;;;;;;;;5055045;28;1274;-79
2022/05/13 00:58:25;;;;;;;;;;;;;;;;;;5058851;28;1183;-78
2022/05/13 01:00:53;;;;;;;;;;;;;;;;;;5080397;28;1101;-78
2022/05/13 01:03:18;;;;;;;;;;;;;;;;;;5067435;28;1196;-78
2022/05/13 01:05:45;;;;;;;;;;;;;;;;;;5063329;28;1236;-78
2022/05/13 01:08:11;;;;;;;;;;;;;;;;;;5076251;28;1183;-78
2022/05/13 01:10:38;;;;;;;;;;;;;;;;;;5056925;28;1870;-78
2022/05/13 01:13:06;;;;;;;;;;;;;;;;;;5030871;28;1187;-79
2022/05/13 01:15:33;;;;;;;;;;;;;;;;;;5065184;28;1112;-77
2022/05/13 01:18:08;;;;;;;;;;;;;;;;;;5050117;28;1271;-77
2022/05/13 01:20:38;;;;;;;;;;;;;;;;;;5070431;28;1145;-77
2022/05/13 01:23:09;;;;;;;;;;;;;;;;;;5046172;28;1136;-78
2022/05/13 01:25:37;;;;;;;;;;;;;;;;;;5047744;28;1335;-77
2022/05/13 01:28:14;;;;;;;;;;;;;;;;;;5061549;28;1378;-78
2022/05/13 01:30:44;;;;;;;;;;;;;;;;;;5054784;28;1906;-77
2022/05/13 01:33:10;;;;;;;;;;;;;;;;;;5066001;28;1227;-79
2022/05/13 01:35:42;;;;;;;;;;;;;;;;;;5049403;28;1454;-78
2022/05/13 01:38:09;;;;;;;;;;;;;;;;;;5046901;28;1298;-78
2022/05/13 01:40:34;;;;;;;;;;;;;;;;;;5045801;28;1248;-78
2022/05/13 01:43:00;;;;;;;;;;;;;;;;;;5043854;28;1329;-77
2022/05/13 01:45:25;;;;;;;;;;;;;;;;;;5060808;28;1335;-77
2022/05/13 01:47:50;;;;;;;;;;;;;;;;;;5049185;28;1271;-78
2022/05/13 01:50:15;;;;;;;;;;;;;;;;;;5050821;28;2011;-78
2022/05/13 01:52:41;;;;;;;;;;;;;;;;;;5067968;28;1208;-78
2022/05/13 01:55:06;;;;;;;;;;;;;;;;;;5047167;28;1319;-77
2022/05/13 01:57:31;;;;;;;;;;;;;;;;;;5057113;28;1236;-78
2022/05/13 01:59:57;;;;;;;;;;;;;;;;;;5078011;28;1223;-78
2022/05/13 02:02:22;;;;;;;;;;;;;;;;;;5051766;28;1240;-78
2022/05/13 02:04:47;;;;;;;;;;;;;;;;;;5082872;28;1235;-78
2022/05/13 02:07:12;;;;;;;;;;;;;;;;;;5075991;28;1148;-78
2022/05/13 02:09:37;;;;;;;;;;;;;;;;;;5047294;28;1262;-79
2022/05/13 02:12:03;;;;;;;;;;;;;;;;;;5049480;28;1945;-78
2022/05/13 02:14:28;;;;;;;;;;;;;;;;;;5067796;28;1295;-79
2022/05/13 02:16:53;;;;;;;;;;;;;;;;;;5090452;28;1188;-78
2022/05/13 02:19:19;;;;;;;;;;;;;;;;;;5080516;28;1255;-78
2022/05/13 02:21:44;;;;;;;;;;;;;;;;;;5053775;28;1263;-77
2022/05/13 02:24:10;;;;;;;;;;;;;;;;;;5087495;28;1232;-78
2022/05/13 02:26:35;;;;;;;;;;;;;;;;;;5049394;28;1179;-78
2022/05/13 02:29:01;;;;;;;;;;;;;;;;;;5049731;28;1308;-78
2022/05/13 02:31:30;;;;;;;;;;;;;;;;;;5090317;28;1957;-78
2022/05/13 02:33:55;;;;;;;;;;;;;;;;;;5090215;28;1215;-78
2022/05/13 02:36:20;;;;;;;;;;;;;;;;;;5071176;28;1194;-77
2022/05/13 02:38:46;;;;;;;;;;;;;;;;;;5071434;28;1347;-79
2022/05/13 02:41:11;;;;;;;;;;;;;;;;;;5073981;28;1349;-78
2022/05/13 02:43:37;;;;;;;;;;;;;;;;;;5087261;28;1440;-77
2022/05/13 02:46:03;;;;;;;;;;;;;;;;;;5050812;28;1176;-78
2022/05/13 02:48:28;;;;;;;;;;;;;;;;;;5067862;28;1243;-77
2022/05/13 02:50:53;;;;;;;;;;;;;;;;;;5089186;28;1950;-78
2022/05/13 02:53:22;;;;;;;;;;;;;;;;;;5086952;28;1266;-78
2022/05/13 02:55:48;;;;;;;;;;;;;;;;;;5072180;28;1350;-78
2022/05/13 02:58:14;;;;;;;;;;;;;;;;;;5067366;28;1347;-76
2022/05/13 03:00:40;;;;;;;;;;;;;;;;;;5069210;28;1176;-78
2022/05/13 03:03:06;;;;;;;;;;;;;;;;;;5061295;28;1354;-78
2022/05/13 03:05:31;;;;;;;;;;;;;;;;;;5049333;28;1149;-78
2022/05/13 03:08:00;;;;;;;;;;;;;;;;;;5053304;28;1357;-79
2022/05/13 03:10:26;;;;;;;;;;;;;;;;;;5047298;28;1927;-79
2022/05/13 03:12:51;;;;;;;;;;;;;;;;;;5069074;28;1273;-79
2022/05/13 03:15:16;;;;;;;;;;;;;;;;;;5051373;28;1257;-78
2022/05/13 03:17:41;;;;;;;;;;;;;;;;;;5083553;28;1369;-78
2022/05/13 03:20:08;;;;;;;;;;;;;;;;;;5051525;28;1229;-78
2022/05/13 03:22:34;;;;;;;;;;;;;;;;;;5086544;28;1310;-77
2022/05/13 03:25:00;;;;;;;;;;;;;;;;;;5044428;28;1217;-78
2022/05/13 03:27:26;;;;;;;;;;;;;;;;;;5057305;28;1235;-77
2022/05/13 03:29:51;;;;;;;;;;;;;;;;;;5084085;28;1173;-78
2022/05/13 03:32:16;;;;;;;;;;;;;;;;;;5070888;28;1886;-78
2022/05/13 03:34:41;;;;;;;;;;;;;;;;;;5050622;28;1274;-78
2022/05/13 03:37:07;;;;;;;;;;;;;;;;;;5061267;28;1310;-77
2022/05/13 03:39:32;;;;;;;;;;;;;;;;;;5073883;28;1157;-77
2022/05/13 03:41:57;;;;;;;;;;;;;;;;;;5051411;28;1296;-79
2022/05/13 03:44:22;;;;;;;;;;;;;;;;;;5059341;28;1175;-78
2022/05/13 03:46:51;;;;;;;;;;;;;;;;;;5059989;28;1226;-78
2022/05/13 03:49:16;;;;;;;;;;;;;;;;;;5067450;28;1266;-78
2022/05/13 03:51:41;;;;;;;;;;;;;;;;;;5047621;28;1987;-77
2022/05/13 03:54:07;;;;;;;;;;;;;;;;;;5068401;28;1347;-78
2022/05/13 03:56:32;;;;;;;;;;;;;;;;;;5060590;28;1212;-78
2022/05/13 03:58:57;;;;;;;;;;;;;;;;;;5053819;28;1203;-78
2022/05/13 04:01:23;;;;;;;;;;;;;;;;;;5060589;28;1234;-77
2022/05/13 04:03:48;;;;;;;;;;;;;;;;;;5063869;28;1150;-77
2022/05/13 04:08:59;;;;;;;;;;;;;;;;;;5077285;28;1076;-78
2022/05/13 04:11:36;;;;;;;;;;;;;;;;;;5058983;28;1957;-77
2022/05/13 04:16:45;;;;;;;;;;;;;;;;;;5082282;28;1017;-78
2022/05/13 04:19:11;;;;;;;;;;;;;;;;;;5055176;28;1179;-78
2022/05/13 04:21:38;;;;;;;;;;;;;;;;;;5048400;28;1236;-78
2022/05/13 04:24:05;;;;;;;;;;;;;;;;;;5049581;28;1148;-78
2022/05/13 04:26:30;;;;;;;;;;;;;;;;;;5066857;28;1252;-77
2022/05/13 04:28:56;;;;;;;;;;;;;;;;;;5068943;28;1125;-78
2022/05/13 04:31:22;;;;;;;;;;;;;;;;;;5053427;28;1894;-77
2022/05/13 04:33:49;;;;;;;;;;;;;;;;;;5066421;28;1290;-77
2022/05/13 04:36:15;;;;;;;;;;;;;;;;;;5069838;28;1255;-79
2022/05/13 04:38:40;;;;;;;;;;;;;;;;;;5056079;28;1229;-77
2022/05/13 04:43:50;;;;;;;;;;;;;;;;;;5085808;28;1072;-79
2022/05/13 04:46:16;;;;;;;;;;;;;;;;;;5055321;28;1227;-80
2022/05/13 04:48:41;;;;;;;;;;;;;;;;;;5061133;28;1197;-79
2022/05/13 04:51:06;;;;;;;;;;;;;;;;;;5073375;28;1910;-79
2022/05/13 04:53:34;;;;;;;;;;;;;;;;;;5084775;28;1350;-77
2022/05/13 04:56:00;;;;;;;;;;;;;;;;;;5087882;28;1247;-78
2022/05/13 04:58:26;;;;;;;;;;;;;;;;;;5066737;28;1385;-79
2022/05/13 05:00:53;;;;;;;;;;;;;;;;;;5042420;28;1354;-78
2022/05/13 05:03:22;;;;;;;;;;;;;;;;;;5051012;28;1196;-76
2022/05/13 05:05:48;;;;;;;;;;;;;;;;;;5050461;28;1207;-78
2022/05/13 05:08:20;;;;;;;;;;;;;;;;;;5048109;28;1282;-78
2022/05/13 05:10:45;;;;;;;;;;;;;;;;;;5048659;28;1902;-78
2022/05/13 05:13:20;;;;;;;;;;;;;;;;;;5046253;28;1156;-79
2022/05/13 05:15:45;;;;;;;;;;;;;;;;;;5050455;28;1224;-77
2022/05/13 05:18:11;;;;;;;;;;;;;;;;;;5068120;28;1176;-77
2022/05/13 05:20:36;;;;;;;;;;;;;;;;;;5066989;28;1159;-78
2022/05/13 05:23:02;;;;;;;;;;;;;;;;;;5038219;28;1339;-79
2022/05/13 05:25:29;;;;;;;;;;;;;;;;;;5070418;28;1247;-78
2022/05/13 05:27:55;;;;;;;;;;;;;;;;;;5078617;28;1180;-78
2022/05/13 05:30:20;;;;;;;;;;;;;;;;;;5043538;28;1889;-79
2022/05/13 05:32:45;;;;;;;;;;;;;;;;;;5047764;28;1318;-78
2022/05/13 05:35:13;;;;;;;;;;;;;;;;;;5047046;28;1153;-79
2022/05/13 05:37:38;;;;;;;;;;;;;;;;;;5077101;28;1137;-79
2022/05/13 05:40:04;;;;;;;;;;;;;;;;;;5065076;28;1212;-79
2022/05/13 05:42:29;;;;;;;;;;;;;;;;;;5041603;28;1263;-79
2022/05/13 05:44:54;;;;;;;;;;;;;;;;;;5046651;28;1208;-79
2022/05/13 05:47:25;;;;;;;;;;;;;;;;;;5064511;28;1327;-79
2022/05/13 05:49:51;;;;;;;;;;;;;;;;;;5067890;28;1198;-81
2022/05/13 05:52:16;;;;;;;;;;;;;;;;;;5053113;28;1918;-80
2022/05/13 05:57:28;;;;;;;;;;;;;;;;;;5030311;28;709;-80
2022/05/13 05:59:53;;;;;;;;;;;;;;;;;;5029497;28;1267;-79
2022/05/13 06:02:19;;;;;;;;;;;;;;;;;;5031338;28;1337;-79
2022/05/13 06:04:45;;;;;;;;;;;;;;;;;;5028162;28;1336;-81
2022/05/13 06:07:13;;;;;;;;;;;;;;;;;;5032061;28;1286;-80
2022/05/13 06:09:39;;;;;;;;;;;;;;;;;;5027229;28;1127;-79
2022/05/13 06:12:06;;;;;;;;;;;;;;;;;;5032190;28;1886;-80
2022/05/13 06:14:31;;;;;;;;;;;;;;;;;;5069440;28;1252;-80
2022/05/13 06:16:56;;;;;;;;;;;;;;;;;;5087704;28;874;-79
2022/05/13 06:19:29;;;;;;;;;;;;;;;;;;5070018;28;1290;-79
2022/05/13 06:21:54;;;;;;;;;;;;;;;;;;5071844;28;897;-80
2022/05/13 06:24:19;;;;;;;;;;;;;;;;;;5072646;28;1281;-80
2022/05/13 06:26:48;;;;;;;;;;;;;;;;;;5073092;28;1326;-80
2022/05/13 06:29:14;;;;;;;;;;;;;;;;;;5065049;28;1317;-84
2022/05/13 06:31:39;;;;;;;;;;;;;;;;;;5033410;28;1964;-80
2022/05/13 06:34:05;;;;;;;;;;;;;;;;;;5048337;28;1437;-81
2022/05/13 06:36:31;;;;;;;;;;;;;;;;;;5049555;28;1307;-79
2022/05/13 06:38:57;;;;;;;;;;;;;;;;;;5048406;28;1207;-80
2022/05/13 06:41:24;;;;;;;;;;;;;;;;;;5050339;28;1347;-81
2022/05/13 06:43:49;;;;;;;;;;;;;;;;;;5026913;28;1239;-80
2022/05/13 06:46:15;;;;;;;;;;;;;;;;;;5069760;28;1404;-81
2022/05/13 06:48:40;;;;;;;;;;;;;;;;;;5067544;28;1391;-80
2022/05/13 06:51:05;;;;;;;;;;;;;;;;;;5068378;28;1910;-81
2022/05/13 06:53:31;;;;;;;;;;;;;;;;;;5066955;28;877;-79
2022/05/13 06:55:57;;;;;;;;;;;;;;;;;;5071038;28;775;-80
2022/05/13 06:58:22;;;;;;;;;;;;;;;;;;5068276;28;1247;-84
2022/05/13 07:00:47;;;;;;;;;;;;;;;;;;5045648;28;1274;-80
2022/05/13 07:03:17;;;;;;;;;;;;;;;;;;5035226;28;1150;-80
2022/05/13 07:05:43;;;;;;;;;;;;;;;;;;5048986;28;1212;-80
2022/05/13 07:08:09;;;;;;;;;;;;;;;;;;5028817;28;1171;-82
2022/05/13 07:10:34;;;;;;;;;;;;;;;;;;5029315;28;1965;-80
2022/05/13 07:13:04;;;;;;;;;;;;;;;;;;5030098;28;837;-81
2022/05/13 07:15:33;;;;;;;;;;;;;;;;;;5027794;28;1289;-81
2022/05/13 07:17:58;;;;;;;;;;;;;;;;;;5013179;28;1161;-79
2022/05/13 07:20:25;;;;;;;;;;;;;;;;;;5012440;28;1374;-80
2022/05/13 07:22:51;;;;;;;;;;;;;;;;;;5029067;28;819;-79
2022/05/13 07:25:16;;;;;;;;;;;;;;;;;;5028960;28;759;-80
2022/05/13 07:27:41;;;;;;;;;;;;;;;;;;5027078;28;1171;-80
2022/05/13 07:30:07;;;;;;;;;;;;;;;;;;5012678;28;1238;-81
2022/05/13 07:32:36;;;;;;;;;;;;;;;;;;5012280;28;1180;-80
2022/05/13 07:35:02;;;;;;;;;;;;;;;;;;5051933;28;1169;-77
2022/05/13 07:37:27;;;;;;;;;;;;;;;;;;5034158;28;1537;-78
2022/05/13 07:42:36;;;;;;;;;;;;;;;;;;5030226;28;651;-80
2022/05/13 07:45:02;;;;;;;;;;;;;;;;;;5031319;28;772;-80
2022/05/13 07:47:27;;;;;;;;;;;;;;;;;;5030894;28;1436;-81
2022/05/13 07:49:53;;;;;;;;;;;;;;;;;;5013067;28;1327;-81
2022/05/13 07:52:18;;;;;;;;;;;;;;;;;;5028019;28;1951;-79
2022/05/13 07:54:43;;;;;;;;;;;;;;;;;;5051478;28;1195;-77
2022/05/13 07:57:08;;;;;;;;;;;;;;;;;;5067075;28;760;-78
2022/05/13 08:00:24;;;;;;;;;;;;;;;;;;5049342;28;1113;-77
2022/05/13 08:02:25;;;;;;;;;;;;;;;;;;5052369;28;1063;-76
2022/05/13 08:04:50;;;;;;;;;;;;;;;;;;5052557;28;775;-79
2022/05/13 08:07:16;;;;;;;;;;;;;;;;;;5050309;28;1288;-77
2022/05/13 08:09:41;;;;;;;;;;;;;;;;;;5048931;28;1301;-78
2022/05/13 08:12:06;;;;;;;;;;;;;;;;;;5051006;28;1973;-77
2022/05/13 08:14:32;;;;;;;;;;;;;;;;;;5050003;28;1724;-79
2022/05/13 08:16:57;;;;;;;;;;;;;;;;;;5050669;28;1270;-78
2022/05/13 08:19:22;;;;;;;;;;;;;;;;;;5066868;28;1223;-77
2022/05/13 08:21:48;;;;;;;;;;;;;;;;;;5075148;28;1263;-79
2022/05/13 08:24:13;;;;;;;;;;;;;;;;;;5054757;28;1334;-81
2022/05/13 08:26:44;;;;;;;;;;;;;;;;;;5066466;28;1179;-78
2022/05/13 08:29:10;;;;;;;;;;;;;;;;;;5047861;28;1153;-78
2022/05/13 08:31:35;;;;;;;;;;;;;;;;;;5049981;28;1952;-79
2022/05/13 08:34:00;;;;;;;;;;;;;;;;;;5049638;28;965;-78
2022/05/13 08:36:25;;;;;;;;;;;;;;;;;;5050911;28;862;-78
2022/05/13 08:38:51;;;;;;;;;;;;;;;;;;5048276;28;1282;-80
2022/05/13 08:41:34;;;;;;;;;;;;;;;;;;5066255;28;929;-78
2022/05/13 08:44:01;;;;;;;;;;;;;;;;;;5046968;28;1293;-80
2022/05/13 08:46:36;;;;;;;;;;;;;;;;;;5049002;28;1211;-78
2022/05/13 08:49:20;;;;;;;;;;;;;;;;;;5047914;28;1363;-79
2022/05/13 08:51:48;;;;;;;;;;;;;;;;;;5050064;28;1897;-79
2022/05/13 08:54:18;;;;;;;;;;;;;;;;;;5047331;28;1290;-77
2022/05/13 08:56:54;;;;;;;;;;;;;;;;;;5054232;28;1304;-80
2022/05/13 08:59:26;;;;;;;;;;;;;;;;;;5053962;28;1236;-78
2022/05/13 09:01:57;;;;;;;;;;;;;;;;;;5047320;28;1081;-78
2022/05/13 09:04:26;;;;;;;;;;;;;;;;;;5047886;28;993;-78
2022/05/13 09:06:54;;;;;;;;;;;;;;;;;;5049779;28;938;-80
2022/05/13 09:09:19;;;;;;;;;;;;;;;;;;5044951;28;1314;-80
2022/05/13 09:11:54;;;;;;;;;;;;;;;;;;5063421;28;2000;-79
2022/05/13 09:14:34;;;;;;;;;;;;;;;;;;5047711;28;1192;-78
2022/05/13 09:17:18;;;;;;;;;;;;;;;;;;5048584;28;882;-78
2022/05/13 09:19:50;;;;;;;;;;;;;;;;;;5045918;28;1152;-79
2022/05/13 09:22:15;;;;;;;;;;;;;;;;;;5049453;28;969;-78
2022/05/13 09:24:41;;;;;;;;;;;;;;;;;;5048472;28;1089;-79
2022/05/13 09:27:06;;;;;;;;;;;;;;;;;;5065094;28;1171;-80
2022/05/13 09:29:39;;;;;;;;;;;;;;;;;;5059509;28;1152;-82
2022/05/13 09:32:07;;;;;;;;;;;;;;;;;;5045729;28;1898;-81
2022/05/13 09:34:34;;;;;;;;;;;;;;;;;;5049412;28;1208;-82
2022/05/13 09:37:08;;;;;;;;;;;;;;;;;;5060080;28;1298;-82
2022/05/13 09:39:35;;;;;;;;;;;;;;;;;;5067123;28;1317;-80
2022/05/13 09:42:17;;;;;;;;;;;;;;;;;;5051931;28;1311;-85
2022/05/13 09:44:42;;;;;;;;;;;;;;;;;;5052041;28;1185;-83
2022/05/13 09:47:07;;;;;;;;;;;;;;;;;;5050313;28;1503;-90
2022/05/13 09:49:36;;;;;;;;;;;;;;;;;;5059703;28;1179;-87
2022/05/13 09:52:12;;;;;;;;;;;;;;;;;;5055142;28;1894;-85
2022/05/13 09:54:39;;;;;;;;;;;;;;;;;;5044730;28;1232;-85
2022/05/13 09:57:23;;;;;;;;;;;;;;;;;;5065302;28;1181;-83
2022/05/13 10:00:06;;;;;;;;;;;;;;;;;;5045852;28;1175;-82
2022/05/13 10:02:33;;;;;;;;;;;;;;;;;;5057367;28;1415;-81
2022/05/13 10:05:19;;;;;;;;;;;;;;;;;;5044548;28;1168;-81
2022/05/13 10:07:53;;;;;;;;;;;;;;;;;;5047981;28;814;-81
2022/05/13 10:16:07;;;;;;;;;;;;;;;;;;5047289;28;681;-83
2022/05/13 10:18:34;;;;;;;;;;;;;;;;;;5046564;28;1286;-80
2022/05/13 10:21:12;;;;;;;;;;;;;;;;;;5046322;28;869;-82
2022/05/13 10:23:46;;;;;;;;;;;;;;;;;;5050208;28;1378;-79
2022/05/13 10:26:15;;;;;;;;;;;;;;;;;;5028180;28;1414;-88
2022/05/13 10:28:46;;;;;;;;;;;;;;;;;;5029053;28;1163;-86
2022/05/13 10:31:43;;;;;;;;;;;;;;;;;;5049504;28;1867;-89
2022/05/13 10:34:30;;;;;;;;;;;;;;;;;;5038691;28;1393;-87
2022/05/13 10:37:02;;;;;;;;;;;;;;;;;;5049661;28;1115;-85
2022/05/13 10:39:33;;;;;;;;;;;;;;;;;;5051014;28;1191;-86
2022/05/13 10:42:02;;;;;;;;;;;;;;;;;;5046806;28;1163;-89
2022/05/13 10:44:37;;;;;;;;;;;;;;;;;;5047689;28;1188;-85
2022/05/13 10:47:05;;;;;;;;;;;;;;;;;;5049455;28;751;-89
2022/05/13 10:49:34;;;;;;;;;;;;;;;;;;5050572;28;1226;-89
2022/05/13 10:52:02;;;;;;;;;;;;;;;;;;5051013;28;1906;-84
2022/05/13 10:54:39;;;;;;;;;;;;;;;;;;5047218;28;1232;-78
2022/05/13 10:57:12;;;;;;;;;;;;;;;;;;5064988;28;1187;-77
2022/05/13 10:59:46;;;;;;;;;;;;;;;;;;5067939;28;1109;-78
2022/05/13 11:02:15;;;;;;;;;;;;;;;;;;5068589;28;1121;-79
2022/05/13 11:04:56;;;;;;;;;;;;;;;;;;5068649;28;1171;-78
2022/05/13 11:07:36;;;;;;;;;;;;;;;;;;5053670;28;1380;-76
2022/05/13 11:10:10;;;;;;;;;;;;;;;;;;5065431;28;1235;-75
2022/05/13 11:12:47;;;;;;;;;;;;;;;;;;5067398;28;1918;-76
2022/05/13 11:15:22;;;;;;;;;;;;;;;;;;5026365;28;1447;-76
2022/05/13 11:18:06;;;;;;;;;;;;;;;;;;5029810;28;886;-76
2022/05/13 11:20:45;;;;;;;;;;;;;;;;;;5029051;28;1277;-75
2022/05/13 11:23:20;;;;;;;;;;;;;;;;;;5026015;28;1412;-75
2022/05/13 11:29:06;;;;;;;;;;;;;;;;;;5024738;28;1226;-76
2022/05/13 11:31:31;;;;;;;;;;;;;;;;;;5026999;28;1953;-76
2022/05/13 11:34:15;;;;;;;;;;;;;;;;;;5026994;28;1167;-78
2022/05/13 11:36:43;;;;;;;;;;;;;;;;;;5029359;28;994;-77
2022/05/13 11:39:09;;;;;;;;;;;;;;;;;;5055723;28;1181;-77
2022/05/13 11:41:49;;;;;;;;;;;;;;;;;;5067969;28;1207;-78
2022/05/13 11:44:18;;;;;;;;;;;;;;;;;;5062953;28;1224;-77
2022/05/13 11:46:58;;;;;;;;;;;;;;;;;;5058326;28;1246;-78
2022/05/13 11:49:23;;;;;;;;;;;;;;;;;;5062681;28;1322;-77
2022/05/13 11:51:49;;;;;;;;;;;;;;;;;;5067048;28;1957;-77
2022/05/13 11:54:22;;;;;;;;;;;;;;;;;;5080216;28;1354;-77
2022/05/13 11:56:48;;;;;;;;;;;;;;;;;;5071817;28;1228;-77
2022/05/13 11:59:14;;;;;;;;;;;;;;;;;;5048700;28;1263;-76
2022/05/13 12:01:45;;;;;;;;;;;;;;;;;;5051754;28;1455;-77
2022/05/13 12:04:14;;;;;;;;;;;;;;;;;;5054702;28;1156;-76
2022/05/13 12:06:49;;;;;;;;;;;;;;;;;;5051646;28;1184;-76
2022/05/13 12:09:21;;;;;;;;;;;;;;;;;;5066039;28;834;-75
2022/05/13 12:11:58;;;;;;;;;;;;;;;;;;5068293;28;1967;-75
2022/05/13 12:14:39;;;;;;;;;;;;;;;;;;5061756;28;1193;-76
2022/05/13 12:17:12;;;;;;;;;;;;;;;;;;5053036;28;1219;-81
2022/05/13 12:19:49;;;;;;;;;;;;;;;;;;5046403;28;1311;-77
2022/05/13 12:22:30;;;;;;;;;;;;;;;;;;5046749;28;1179;-76
2022/05/13 12:25:12;;;;;;;;;;;;;;;;;;5044720;28;1342;-78
2022/05/13 12:27:39;;;;;;;;;;;;;;;;;;5063452;28;1340;-76
2022/05/13 12:30:07;;;;;;;;;;;;;;;;;;5060756;28;1280;-77
2022/05/13 12:32:46;;;;;;;;;;;;;;;;;;5089009;28;1951;-76
2022/05/13 12:38:12;;;;;;;;;;;;;;;;;;5088227;28;711;-80
2022/05/13 12:40:45;;;;;;;;;;;;;;;;;;5070754;28;1173;-77
2022/05/13 12:43:17;;;;;;;;;;;;;;;;;;5086329;28;775;-75
2022/05/13 12:45:53;;;;;;;;;;;;;;;;;;5070655;28;1192;-78
2022/05/13 12:48:18;;;;;;;;;;;;;;;;;;5076961;28;1132;-76
2022/05/13 12:50:51;;;;;;;;;;;;;;;;;;5080941;28;1898;-77
2022/05/13 12:53:28;;;;;;;;;;;;;;;;;;5066186;28;1211;-77
2022/05/13 12:56:15;;;;;;;;;;;;;;;;;;5070115;28;1212;-78
2022/05/13 12:58:42;;;;;;;;;;;;;;;;;;5082653;28;1045;-81
2022/05/13 13:01:09;;;;;;;;;;;;;;;;;;5070650;28;1278;-76
2022/05/13 13:03:36;;;;;;;;;;;;;;;;;;5088617;28;1351;-77
2022/05/13 13:06:07;;;;;;;;;;;;;;;;;;5067688;28;1267;-77
2022/05/13 13:08:36;;;;;;;;;;;;;;;;;;5068569;28;1297;-79
2022/05/13 13:11:25;;;;;;;;;;;;;;;;;;5077800;28;1961;-78
2022/05/13 13:14:04;;;;;;;;;;;;;;;;;;5055983;28;1111;-77
2022/05/13 13:16:36;;;;;;;;;;;;;;;;;;5066609;28;806;-78
2022/05/13 13:19:06;;;;;;;;;;;;;;;;;;5067922;28;909;-76
2022/05/13 13:21:31;;;;;;;;;;;;;;;;;;5066690;28;1192;-78
2022/05/13 13:23:57;;;;;;;;;;;;;;;;;;5070516;28;1156;-78
2022/05/13 13:26:22;;;;;;;;;;;;;;;;;;5087990;28;909;-77
2022/05/13 13:28:50;;;;;;;;;;;;;;;;;;5067617;28;1167;-77
2022/05/13 13:31:24;;;;;;;;;;;;;;;;;;5069348;28;1882;-76
2022/05/13 13:33:51;;;;;;;;;;;;;;;;;;5069221;28;1242;-78
2022/05/13 13:36:20;;;;;;;;;;;;;;;;;;5069164;28;1229;-77
2022/05/13 13:38:52;;;;;;;;;;;;;;;;;;5068600;28;1224;-77
2022/05/13 13:41:25;;;;;;;;;;;;;;;;;;5087343;28;1219;-77
2022/05/13 13:43:54;;;;;;;;;;;;;;;;;;5084587;28;1239;-77
2022/05/13 13:46:22;;;;;;;;;;;;;;;;;;5086789;28;1137;-77
2022/05/13 13:48:50;;;;;;;;;;;;;;;;;;5055868;28;1215;-75
2022/05/13 13:51:24;;;;;;;;;;;;;;;;;;5066306;28;1953;-76
2022/05/13 13:53:58;;;;;;;;;;;;;;;;;;5064448;28;1236;-76
2022/05/13 13:56:23;;;;;;;;;;;;;;;;;;5063434;28;1255;-76
2022/05/13 13:58:55;;;;;;;;;;;;;;;;;;5085183;28;850;-74
2022/05/13 14:01:27;;;;;;;;;;;;;;;;;;5065944;28;1371;-79
2022/05/13 14:04:10;;;;;;;;;;;;;;;;;;5064036;28;1314;-75
2022/05/13 14:06:36;;;;;;;;;;;;;;;;;;5078703;28;845;-78
2022/05/13 14:09:02;;;;;;;;;;;;;;;;;;5065685;28;1148;-76
2022/05/13 14:11:28;;;;;;;;;;;;;;;;;;5088426;28;1977;-77
2022/05/13 14:13:55;;;;;;;;;;;;;;;;;;5089248;28;857;-76
2022/05/13 14:16:23;;;;;;;;;;;;;;;;;;5072531;28;1175;-75
2022/05/13 14:18:51;;;;;;;;;;;;;;;;;;5073968;28;1409;-74
2022/05/13 14:21:16;;;;;;;;;;;;;;;;;;5071950;28;1243;-75
2022/05/13 14:23:42;;;;;;;;;;;;;;;;;;5065524;28;1387;-75
2022/05/13 14:26:08;;;;;;;;;;;;;;;;;;5052639;28;1181;-76
2022/05/13 14:28:42;;;;;;;;;;;;;;;;;;5072503;28;1333;-76
2022/05/13 14:31:11;;;;;;;;;;;;;;;;;;5070196;28;1963;-75
2022/05/13 14:33:45;;;;;;;;;;;;;;;;;;5052056;28;1125;-75
2022/05/13 14:36:10;;;;;;;;;;;;;;;;;;5068412;28;1283;-76
2022/05/13 14:41:36;;;;;;;;;;;;;;;;;;5067329;28;1056;-76
2022/05/13 14:44:01;;;;;;;;;;;;;;;;;;5064479;28;1378;-75
2022/05/13 14:46:30;;;;;;;;;;;;;;;;;;5061943;28;1081;-74
2022/05/13 14:48:55;;;;;;;;;;;;;;;;;;5069312;28;1145;-74
2022/05/13 14:51:22;;;;;;;;;;;;;;;;;;5067386;28;1969;-75
2022/05/13 14:53:47;;;;;;;;;;;;;;;;;;5070524;28;952;-76
2022/05/13 14:56:15;;;;;;;;;;;;;;;;;;5050430;28;1357;-77
2022/05/13 14:58:55;;;;;;;;;;;;;;;;;;5067598;28;945;-76
2022/05/13 15:01:36;;;;;;;;;;;;;;;;;;5047859;28;1184;-76
2022/05/13 15:04:11;;;;;;;;;;;;;;;;;;5052278;28;1244;-76
2022/05/13 15:06:44;;;;;;;;;;;;;;;;;;5051784;28;1410;-79
2022/05/13 15:09:16;;;;;;;;;;;;;;;;;;5051379;28;1279;-75
2022/05/13 15:11:41;;;;;;;;;;;;;;;;;;5066994;28;1973;-75
2022/05/13 15:14:09;;;;;;;;;;;;;;;;;;5068677;28;1076;-76
2022/05/13 15:16:37;;;;;;;;;;;;;;;;;;5048590;28;1053;-77
2022/05/13 15:19:02;;;;;;;;;;;;;;;;;;5050723;28;1227;-78
2022/05/13 15:21:27;;;;;;;;;;;;;;;;;;5056656;28;1216;-76
2022/05/13 15:23:53;;;;;;;;;;;;;;;;;;5061123;28;1411;-75
2022/05/13 15:26:22;;;;;;;;;;;;;;;;;;5060699;28;1194;-77
2022/05/13 15:28:48;;;;;;;;;;;;;;;;;;5050120;28;1427;-77
2022/05/13 15:31:16;;;;;;;;;;;;;;;;;;5068467;28;1894;-78
2022/05/13 15:33:42;;;;;;;;;;;;;;;;;;5070181;28;1221;-78
2022/05/13 15:36:15;;;;;;;;;;;;;;;;;;5088004;28;1157;-78
2022/05/13 15:38:40;;;;;;;;;;;;;;;;;;5051346;28;1265;-78
2022/05/13 15:41:05;;;;;;;;;;;;;;;;;;5045996;28;1334;-76
2022/05/13 15:43:30;;;;;;;;;;;;;;;;;;5046687;28;1087;-77
2022/05/13 15:45:56;;;;;;;;;;;;;;;;;;5043994;28;1196;-77
2022/05/13 15:48:22;;;;;;;;;;;;;;;;;;5047367;28;974;-78
2022/05/13 15:53:31;;;;;;;;;;;;;;;;;;5063944;28;1141;-78
2022/05/13 15:55:57;;;;;;;;;;;;;;;;;;5034665;28;1260;-80
2022/05/13 15:58:24;;;;;;;;;;;;;;;;;;5041358;28;1182;-80
2022/05/13 16:00:52;;;;;;;;;;;;;;;;;;5039727;28;1329;-78
2022/05/13 16:03:18;;;;;;;;;;;;;;;;;;5057839;28;1068;-81
2022/05/13 16:05:43;;;;;;;;;;;;;;;;;;5043723;28;890;-79
2022/05/13 16:08:09;;;;;;;;;;;;;;;;;;5051728;28;1347;-79
2022/05/13 16:10:36;;;;;;;;;;;;;;;;;;5061275;28;1921;-79
2022/05/13 16:13:01;;;;;;;;;;;;;;;;;;5064021;28;1233;-79
2022/05/13 16:15:32;;;;;;;;;;;;;;;;;;5065939;28;1243;-79
2022/05/13 16:18:00;;;;;;;;;;;;;;;;;;5062848;28;1190;-79
2022/05/13 16:20:28;;;;;;;;;;;;;;;;;;5067448;28;1243;-79
2022/05/13 16:22:55;;;;;;;;;;;;;;;;;;5066925;28;1179;-79
2022/05/13 16:25:21;;;;;;;;;;;;;;;;;;5082289;28;1113;-79
2022/05/13 16:27:48;;;;;;;;;;;;;;;;;;5063426;28;1679;-77
2022/05/13 16:30:13;;;;;;;;;;;;;;;;;;5045259;28;1157;-78
2022/05/13 16:32:39;;;;;;;;;;;;;;;;;;5039214;28;1890;-81
2022/05/13 16:35:04;;;;;;;;;;;;;;;;;;5046594;28;1244;-78
2022/05/13 16:37:42;;;;;;;;;;;;;;;;;;5060801;28;1184;-79
2022/05/13 16:40:28;;;;;;;;;;;;;;;;;;5050147;28;1286;-79
2022/05/13 16:42:53;;;;;;;;;;;;;;;;;;5063307;28;1256;-80
2022/05/13 16:45:19;;;;;;;;;;;;;;;;;;5047158;28;1223;-78
2022/05/13 16:47:44;;;;;;;;;;;;;;;;;;5077544;28;1061;-78
2022/05/13 16:50:12;;;;;;;;;;;;;;;;;;5062619;28;1179;-79
2022/05/13 16:52:37;;;;;;;;;;;;;;;;;;5057807;28;1956;-78
2022/05/13 16:55:03;;;;;;;;;;;;;;;;;;5041822;28;1366;-79
2022/05/13 16:57:30;;;;;;;;;;;;;;;;;;5061878;28;1188;-78
2022/05/13 16:59:56;;;;;;;;;;;;;;;;;;5046766;28;1451;-79
2022/05/13 17:02:21;;;;;;;;;;;;;;;;;;5085456;28;1172;-79
2022/05/13 17:04:46;;;;;;;;;;;;;;;;;;5087320;28;1401;-78
2022/05/13 17:07:12;;;;;;;;;;;;;;;;;;5081358;28;1164;-79
2022/05/13 17:17:50;;;;;;;;;;;;;;;;;;5046818;28;647;-80
2022/05/13 17:20:15;;;;;;;;;;;;;;;;;;5042795;28;1223;-78
2022/05/13 17:22:40;;;;;;;;;;;;;;;;;;5050120;28;858;-80
2022/05/13 17:25:06;;;;;;;;;;;;;;;;;;5050537;28;1296;-80
2022/05/13 17:27:36;;;;;;;;;;;;;;;;;;5047511;28;1263;-80
2022/05/13 17:30:03;;;;;;;;;;;;;;;;;;5049172;28;1247;-79
2022/05/13 17:32:29;;;;;;;;;;;;;;;;;;5049703;28;1910;-79
2022/05/13 17:34:55;;;;;;;;;;;;;;;;;;5048800;28;997;-79
2022/05/13 17:37:29;;;;;;;;;;;;;;;;;;5048301;28;1180;-79
2022/05/13 17:39:58;;;;;;;;;;;;;;;;;;5076434;28;1057;-79
2022/05/13 17:42:24;;;;;;;;;;;;;;;;;;5049955;28;1297;-79
2022/05/13 17:44:49;;;;;;;;;;;;;;;;;;5055805;28;1500;-79
2022/05/13 17:47:14;;;;;;;;;;;;;;;;;;5071091;28;1145;-80
2022/05/13 17:49:40;;;;;;;;;;;;;;;;;;5088927;28;1219;-77
2022/05/13 17:52:08;;;;;;;;;;;;;;;;;;5036575;28;1893;-78
2022/05/13 17:54:33;;;;;;;;;;;;;;;;;;5066414;28;858;-78